Time;durP1;ratioP1;P1;durP2;ratioP2;P2;SDS_P1;SDS_P2;PMS_P1;PMS_P2;Temp;Humidity;BMP_temperature;BMP_pressure;BME280_temperature;BME280_humidity;BME280_pressure;Samples;Min_cycle;Max_cycle;Signal;HPM_P1;HPM_P2
2022/03/23 00:01:52;;;;;;;;;;;;;;;5.37;47.60;97670.00;5074104;28;19947;-71
2022/03/23 00:04:18;;;;;;;;;;;;;;;5.33;48.08;97667.84;5074527;28;19952;-71
2022/03/23 00:06:46;;;;;;;;;;;;;;;5.27;48.21;97669.28;5074267;28;20451;-71
2022/03/23 00:09:15;;;;;;;;;;;;;;;5.23;47.93;97668.00;5074779;28;20303;-71
2022/03/23 00:11:42;;;;;;;;;;;;;;;5.19;48.00;97661.47;5074157;28;19941;-71
2022/03/23 00:14:09;;;;;;;;;;;;;;;5.16;48.27;97666.94;5074403;28;20334;-71
2022/03/23 00:16:36;;;;;;;;;;;;;;;5.15;48.11;97665.34;5074099;28;19942;-71
2022/03/23 00:19:03;;;;;;;;;;;;;;;5.13;48.61;97665.47;5074582;28;19953;-71
2022/03/23 00:21:29;;;;;;;;;;;;;;;5.08;48.14;97673.75;5074235;28;19952;-71
2022/03/23 00:23:55;;;;;;;;;;;;;;;5.06;48.14;97667.03;5074359;28;20389;-70
2022/03/23 00:26:21;;;;;;;;;;;;;;;5.03;48.43;97665.56;5072964;28;20002;-70
2022/03/23 00:28:48;;;;;;;;;;;;;;;4.99;49.01;97664.25;5073366;28;19973;-72
2022/03/23 00:31:14;;;;;;;;;;;;;;;4.93;48.65;97664.84;5063089;28;19945;-70
2022/03/23 00:33:40;;;;;;;;;;;;;;;4.88;48.49;97659.31;5074186;28;19952;-71
2022/03/23 00:36:07;;;;;;;;;;;;;;;4.83;48.39;97659.75;5073858;28;19950;-71
2022/03/23 00:38:33;;;;;;;;;;;;;;;4.81;48.67;97669.50;5073908;28;19944;-71
2022/03/23 00:40:59;;;;;;;;;;;;;;;4.79;49.00;97668.00;5073841;28;19942;-70
2022/03/23 00:43:24;;;;;;;;;;;;;;;4.74;48.66;97658.03;5073577;28;19958;-71
2022/03/23 00:45:50;;;;;;;;;;;;;;;4.71;49.07;97665.34;5073791;28;19959;-73
2022/03/23 00:48:16;;;;;;;;;;;;;;;4.69;49.24;97668.09;5073654;28;20048;-70
2022/03/23 00:50:42;;;;;;;;;;;;;;;4.66;49.62;97663.19;5074036;28;19955;-71
2022/03/23 00:53:08;;;;;;;;;;;;;;;4.62;49.24;97672.25;5073751;28;19953;-72
2022/03/23 00:55:34;;;;;;;;;;;;;;;4.58;49.39;97665.75;5073518;28;20405;-71
2022/03/23 00:58:00;;;;;;;;;;;;;;;4.55;50.13;97663.41;5073946;28;20007;-72
2022/03/23 01:00:26;;;;;;;;;;;;;;;4.51;49.85;97668.09;5073673;28;19944;-72
2022/03/23 01:02:53;;;;;;;;;;;;;;;4.47;50.06;97669.34;5072230;28;20387;-71
2022/03/23 01:05:19;;;;;;;;;;;;;;;4.42;49.94;97671.59;5073474;28;19952;-71
2022/03/23 01:07:46;;;;;;;;;;;;;;;4.38;49.77;97657.28;5072495;28;19957;-71
2022/03/23 01:10:13;;;;;;;;;;;;;;;4.34;50.31;97668.91;5073500;28;20442;-71
2022/03/23 01:12:40;;;;;;;;;;;;;;;4.31;50.59;97671.81;5073533;28;19959;-73
2022/03/23 01:15:06;;;;;;;;;;;;;;;4.25;50.43;97674.03;5073416;28;19952;-71
2022/03/23 01:17:32;;;;;;;;;;;;;;;4.22;50.65;97668.31;5073316;28;19946;-70
2022/03/23 01:19:58;;;;;;;;;;;;;;;4.18;50.59;97666.97;5073296;28;20504;-71
2022/03/23 01:22:24;;;;;;;;;;;;;;;4.13;50.93;97664.81;5073447;28;19967;-70
2022/03/23 01:24:50;;;;;;;;;;;;;;;4.09;50.74;97662.66;5073263;28;19954;-70
2022/03/23 01:27:16;;;;;;;;;;;;;;;4.05;50.55;97662.13;5073431;28;19956;-71
2022/03/23 01:29:42;;;;;;;;;;;;;;;4.02;51.00;97662.44;5073091;28;19994;-71
2022/03/23 01:32:09;;;;;;;;;;;;;;;3.97;51.05;97668.06;5073534;28;20424;-71
2022/03/23 01:34:35;;;;;;;;;;;;;;;3.92;51.36;97665.09;5073248;28;19954;-70
2022/03/23 01:37:00;;;;;;;;;;;;;;;3.86;51.58;97669.09;5073140;28;19983;-71
2022/03/23 01:39:26;;;;;;;;;;;;;;;3.80;51.70;97661.88;5073358;28;20002;-71
2022/03/23 01:41:52;;;;;;;;;;;;;;;3.75;51.50;97656.31;5059035;28;19956;-70
2022/03/23 01:44:21;;;;;;;;;;;;;;;3.73;51.33;97652.22;5077406;28;19951;-71
2022/03/23 01:46:59;;;;;;;;;;;;;;;3.70;51.92;97650.75;5062947;28;19946;-70
2022/03/23 01:49:25;;;;;;;;;;;;;;;3.68;51.66;97659.63;5076709;28;19968;-71
2022/03/23 01:51:51;;;;;;;;;;;;;;;3.65;52.01;97652.94;5077265;28;19973;-71
2022/03/23 01:54:17;;;;;;;;;;;;;;;3.59;52.04;97651.75;5077265;28;19972;-71
2022/03/23 01:56:43;;;;;;;;;;;;;;;3.56;51.85;97659.00;5076811;28;20417;-71
2022/03/23 01:59:10;;;;;;;;;;;;;;;3.53;51.95;97656.69;5076972;28;20427;-71
2022/03/23 02:01:37;;;;;;;;;;;;;;;3.53;52.63;97654.09;5076511;28;19950;-71
2022/03/23 02:04:03;;;;;;;;;;;;;;;3.49;52.55;97657.94;5077043;28;19969;-70
2022/03/23 02:06:29;;;;;;;;;;;;;;;3.47;52.40;97652.09;5076742;28;19990;-71
2022/03/23 02:08:55;;;;;;;;;;;;;;;3.43;52.91;97651.53;5076678;28;19958;-70
2022/03/23 02:11:21;;;;;;;;;;;;;;;3.38;52.58;97653.72;5076547;28;19955;-70
2022/03/23 02:13:48;;;;;;;;;;;;;;;3.35;52.60;97651.44;5075449;28;20301;-70
2022/03/23 02:16:14;;;;;;;;;;;;;;;3.32;52.96;97654.31;5076299;28;20327;-71
2022/03/23 02:18:40;;;;;;;;;;;;;;;3.28;52.93;97653.78;5075463;28;19950;-71
2022/03/23 02:21:06;;;;;;;;;;;;;;;3.25;53.05;97652.31;5076636;28;20001;-71
2022/03/23 02:23:32;;;;;;;;;;;;;;;3.23;52.65;97653.38;5075041;28;19961;-72
2022/03/23 02:26:00;;;;;;;;;;;;;;;3.22;53.16;97646.56;5075687;28;19979;-70
2022/03/23 02:28:26;;;;;;;;;;;;;;;3.21;53.54;97647.53;5076175;28;19956;-71
2022/03/23 02:30:53;;;;;;;;;;;;;;;3.19;53.34;97652.03;5076198;28;19948;-70
2022/03/23 02:33:20;;;;;;;;;;;;;;;3.17;53.67;97652.19;5076223;28;19954;-70
2022/03/23 02:35:48;;;;;;;;;;;;;;;3.12;53.60;97646.59;5076227;28;19953;-71
2022/03/23 02:38:14;;;;;;;;;;;;;;;3.08;53.38;97647.03;5075820;28;19941;-70
2022/03/23 02:40:41;;;;;;;;;;;;;;;3.05;53.43;97648.13;5075973;28;19957;-71
2022/03/23 02:43:07;;;;;;;;;;;;;;;3.03;53.03;97647.44;5075137;28;19959;-70
2022/03/23 02:45:33;;;;;;;;;;;;;;;3.01;53.56;97651.97;5076176;28;20326;-70
2022/03/23 02:47:59;;;;;;;;;;;;;;;3.01;54.08;97652.78;5075789;28;19942;-70
2022/03/23 02:50:25;;;;;;;;;;;;;;;2.99;54.17;97661.66;5076007;28;20007;-70
2022/03/23 03:04:10;;;;;;;;;;;;;;;2.81;54.32;97669.31;5075881;28;19979;-71
2022/03/23 03:06:36;;;;;;;;;;;;;;;2.75;54.51;97662.91;5075178;28;20007;-70
2022/03/23 03:09:02;;;;;;;;;;;;;;;2.71;54.62;97671.06;5075570;28;20020;-71
2022/03/23 03:11:28;;;;;;;;;;;;;;;2.69;53.74;97662.63;5075410;28;19996;-71
2022/03/23 03:13:53;;;;;;;;;;;;;;;2.66;54.38;97661.13;5075580;28;19964;-70
2022/03/23 03:16:19;;;;;;;;;;;;;;;2.63;54.70;97667.41;5074313;28;19951;-70
2022/03/23 03:18:46;;;;;;;;;;;;;;;2.60;54.52;97662.53;5075264;28;19951;-71
2022/03/23 03:21:13;;;;;;;;;;;;;;;2.56;54.53;97671.53;5063209;28;19952;-70
2022/03/23 03:23:41;;;;;;;;;;;;;;;2.53;55.19;97665.78;5075367;28;20406;-70
2022/03/23 03:26:08;;;;;;;;;;;;;;;2.49;55.88;97669.59;5075309;28;19952;-71
2022/03/23 03:28:34;;;;;;;;;;;;;;;2.43;55.51;97673.56;5075182;28;19959;-71
2022/03/23 03:31:01;;;;;;;;;;;;;;;2.38;55.09;97666.19;5075297;28;20320;-71
2022/03/23 03:37:07;;;;;;;;;;;;;;;2.32;55.79;97669.31;5065551;28;20065;-70
2022/03/23 03:39:33;;;;;;;;;;;;;;;2.29;55.38;97669.63;5075003;28;20036;-71
2022/03/23 03:41:59;;;;;;;;;;;;;;;2.28;55.60;97669.75;5074844;28;19955;-71
2022/03/23 03:44:25;;;;;;;;;;;;;;;2.26;55.75;97669.06;5074947;28;19957;-71
2022/03/23 03:46:51;;;;;;;;;;;;;;;2.23;55.45;97670.97;5074648;28;20481;-71
2022/03/23 03:49:18;;;;;;;;;;;;;;;2.24;55.06;97671.78;5074182;28;20406;-70
2022/03/23 03:51:44;;;;;;;;;;;;;;;2.21;55.82;97672.06;5074638;28;19954;-71
2022/03/23 03:54:11;;;;;;;;;;;;;;;2.18;56.03;97675.72;5074790;28;19941;-70
2022/03/23 03:56:36;;;;;;;;;;;;;;;2.14;55.89;97679.53;5074838;28;19947;-70
2022/03/23 03:59:02;;;;;;;;;;;;;;;2.12;56.14;97678.84;5074568;28;20332;-70
2022/03/23 04:01:28;;;;;;;;;;;;;;;2.08;56.46;97674.91;5074397;28;19971;-70
2022/03/23 04:03:54;;;;;;;;;;;;;;;2.05;56.44;97684.69;5073871;28;19977;-72
2022/03/23 04:06:20;;;;;;;;;;;;;;;1.99;57.20;97684.25;5074091;28;19958;-70
2022/03/23 04:08:46;;;;;;;;;;;;;;;1.96;56.48;97683.72;5074148;28;20021;-70
2022/03/23 04:11:12;;;;;;;;;;;;;;;1.93;56.54;97689.16;5074419;28;19949;-70
2022/03/23 04:13:38;;;;;;;;;;;;;;;1.92;56.92;97683.16;5073044;28;19963;-71
2022/03/23 04:16:04;;;;;;;;;;;;;;;1.91;56.66;97680.69;5074325;28;19953;-71
2022/03/23 04:18:30;;;;;;;;;;;;;;;1.89;56.35;97688.63;5074090;28;19954;-70
2022/03/23 04:20:56;;;;;;;;;;;;;;;1.89;56.15;97693.78;5074358;28;19951;-71
2022/03/23 04:23:22;;;;;;;;;;;;;;;1.89;56.89;97691.19;5074036;28;19990;-70
2022/03/23 04:25:48;;;;;;;;;;;;;;;1.88;57.19;97691.31;5072928;28;19956;-72
2022/03/23 04:28:14;;;;;;;;;;;;;;;1.83;56.61;97687.38;5074110;28;20333;-71
2022/03/23 04:30:41;;;;;;;;;;;;;;;1.78;56.64;97689.50;5074059;28;19950;-71
2022/03/23 04:33:07;;;;;;;;;;;;;;;1.76;56.97;97694.00;5074032;28;20300;-71
2022/03/23 04:35:33;;;;;;;;;;;;;;;1.74;56.50;97692.50;5073875;28;19998;-72
2022/03/23 04:37:59;;;;;;;;;;;;;;;1.72;56.72;97696.97;5074211;28;19953;-72
2022/03/23 04:40:25;;;;;;;;;;;;;;;1.70;56.87;97702.31;5072823;28;20029;-71
2022/03/23 04:42:51;;;;;;;;;;;;;;;1.69;57.49;97705.81;5073645;28;19957;-71
2022/03/23 04:45:17;;;;;;;;;;;;;;;1.70;57.85;97712.66;5074054;28;19950;-71
2022/03/23 04:47:46;;;;;;;;;;;;;;;1.69;58.20;97707.59;5073700;28;19949;-71
2022/03/23 04:50:12;;;;;;;;;;;;;;;1.69;58.47;97711.00;5073612;28;19963;-71
2022/03/23 04:52:39;;;;;;;;;;;;;;;1.69;57.98;97705.81;5073745;28;19955;-71
2022/03/23 04:55:05;;;;;;;;;;;;;;;1.69;57.65;97710.19;5074018;28;19946;-71
2022/03/23 04:57:31;;;;;;;;;;;;;;;1.65;58.26;97699.28;5073690;28;20412;-71
2022/03/23 05:00:00;;;;;;;;;;;;;;;1.66;58.10;97711.28;5072337;28;19951;-70
2022/03/23 05:02:26;;;;;;;;;;;;;;;1.65;58.76;97709.63;5073293;28;19981;-70
2022/03/23 05:04:53;;;;;;;;;;;;;;;1.66;58.87;97711.28;5074058;28;19951;-70
2022/03/23 05:07:18;;;;;;;;;;;;;;;1.68;59.12;97713.72;5073480;28;19955;-70
2022/03/23 05:09:44;;;;;;;;;;;;;;;1.67;59.48;97715.47;5073419;28;19997;-70
2022/03/23 05:12:10;;;;;;;;;;;;;;;1.68;60.32;97716.28;5072200;28;20012;-70
2022/03/23 05:14:36;;;;;;;;;;;;;;;1.70;58.98;97720.41;5073069;28;19952;-70
2022/03/23 05:17:03;;;;;;;;;;;;;;;1.69;58.52;97721.34;5073530;28;19950;-70
2022/03/23 05:19:29;;;;;;;;;;;;;;;1.71;58.46;97723.81;5073339;28;19956;-70
2022/03/23 05:21:54;;;;;;;;;;;;;;;1.73;58.98;97727.91;5073433;28;19958;-69
2022/03/23 05:24:20;;;;;;;;;;;;;;;1.73;58.47;97727.91;5073422;28;19949;-70
2022/03/23 05:26:46;;;;;;;;;;;;;;;1.75;58.50;97722.59;5073328;28;20325;-71
2022/03/23 05:29:12;;;;;;;;;;;;;;;1.74;58.02;97724.38;5073070;28;20001;-70
2022/03/23 05:31:38;;;;;;;;;;;;;;;1.74;58.38;97729.53;5073341;28;20398;-70
2022/03/23 05:34:04;;;;;;;;;;;;;;;1.72;58.57;97726.28;5073339;28;19956;-70
2022/03/23 05:36:30;;;;;;;;;;;;;;;1.70;58.32;97735.94;5073205;28;20016;-70
2022/03/23 05:38:57;;;;;;;;;;;;;;;1.69;58.30;97729.09;5073314;28;19988;-71
2022/03/23 05:41:23;;;;;;;;;;;;;;;1.70;58.05;97727.31;5073287;28;19944;-71
2022/03/23 05:43:49;;;;;;;;;;;;;;;1.73;58.17;97737.44;5073089;28;20420;-70
2022/03/23 05:46:15;;;;;;;;;;;;;;;1.72;58.59;97731.44;5071880;28;19957;-70
2022/03/23 05:48:41;;;;;;;;;;;;;;;1.75;58.99;97731.16;5073248;28;19995;-70
2022/03/23 05:51:07;;;;;;;;;;;;;;;1.75;58.78;97725.19;5073030;28;19946;-70
2022/03/23 05:53:33;;;;;;;;;;;;;;;1.78;58.31;97728.31;5073191;28;19952;-70
2022/03/23 05:55:59;;;;;;;;;;;;;;;2.09;58.32;97732.63;5073017;28;19959;-70
2022/03/23 05:58:25;;;;;;;;;;;;;;;2.69;57.10;97728.22;5073132;28;19963;-70
2022/03/23 06:00:51;;;;;;;;;;;;;;;3.36;56.11;97715.28;5073117;28;19956;-70
2022/03/23 06:03:17;;;;;;;;;;;;;;;4.03;54.36;97708.19;5072757;28;19971;-70
2022/03/23 06:05:43;;;;;;;;;;;;;;;4.64;53.10;97704.09;5073018;28;20007;-70
2022/03/23 06:08:09;;;;;;;;;;;;;;;5.18;51.71;97707.44;5072964;28;20039;-70
2022/03/23 06:10:34;;;;;;;;;;;;;;;5.66;50.77;97705.28;5072942;28;19967;-70
2022/03/23 06:13:00;;;;;;;;;;;;;;;6.10;49.78;97699.94;5073026;28;19958;-70
2022/03/23 06:15:26;;;;;;;;;;;;;;;6.54;48.89;97704.13;5073011;28;19956;-70
2022/03/23 06:17:53;;;;;;;;;;;;;;;6.96;48.18;97703.16;5073018;28;20320;-71
2022/03/23 06:20:19;;;;;;;;;;;;;;;7.34;47.55;97706.84;5072859;28;19984;-72
2022/03/23 06:22:44;;;;;;;;;;;;;;;7.69;46.64;97699.59;5071710;28;19953;-70
2022/03/23 06:25:11;;;;;;;;;;;;;;;8.01;46.06;97711.72;5072768;28;19948;-71
2022/03/23 06:27:37;;;;;;;;;;;;;;;8.32;45.38;97710.91;5073356;28;19945;-71
2022/03/23 06:30:03;;;;;;;;;;;;;;;8.59;44.90;97712.25;5076305;28;20385;-71
2022/03/23 06:32:29;;;;;;;;;;;;;;;8.88;44.55;97710.72;5076468;28;20297;-71
2022/03/23 06:34:55;;;;;;;;;;;;;;;9.13;43.98;97706.91;5076183;28;19964;-70
2022/03/23 06:37:22;;;;;;;;;;;;;;;9.31;43.69;97713.63;5076111;28;19949;-71
2022/03/23 06:39:48;;;;;;;;;;;;;;;9.48;43.04;97716.91;5076352;28;19946;-71
2022/03/23 06:42:14;;;;;;;;;;;;;;;9.52;43.26;97716.34;5076184;28;19961;-71
2022/03/23 06:44:41;;;;;;;;;;;;;;;9.40;42.94;97719.59;5074765;28;19952;-71
2022/03/23 06:47:06;;;;;;;;;;;;;;;9.44;42.19;97713.81;5075955;28;19949;-70
2022/03/23 06:49:32;;;;;;;;;;;;;;;9.52;43.16;97720.78;5075944;28;19964;-71
2022/03/23 06:51:58;;;;;;;;;;;;;;;9.70;42.68;97730.88;5075803;28;19950;-70
2022/03/23 06:54:24;;;;;;;;;;;;;;;9.77;42.35;97725.75;5075680;28;19976;-70
2022/03/23 06:56:51;;;;;;;;;;;;;;;9.79;42.46;97723.78;5076261;28;20363;-70
2022/03/23 06:59:18;;;;;;;;;;;;;;;9.89;41.94;97716.44;5075790;28;20403;-71
2022/03/23 07:01:44;;;;;;;;;;;;;;;9.95;41.78;97719.16;5075749;28;19956;-71
2022/03/23 07:04:10;;;;;;;;;;;;;;;9.92;41.78;97713.47;5075828;28;19985;-71
2022/03/23 07:06:35;;;;;;;;;;;;;;;9.94;41.93;97720.13;5075517;28;20407;-71
2022/03/23 07:11:46;;;;;;;;;;;;;;;10.07;41.99;97727.34;5076036;28;20015;-70
2022/03/23 07:14:11;;;;;;;;;;;;;;;10.31;42.06;97733.31;5075546;28;19948;-70
2022/03/23 07:16:38;;;;;;;;;;;;;;;10.49;41.22;97732.91;5075478;28;19958;-70
2022/03/23 07:19:04;;;;;;;;;;;;;;;10.52;41.17;97733.38;5075454;28;19948;-70
2022/03/23 07:21:31;;;;;;;;;;;;;;;10.62;41.17;97734.88;5075621;28;19957;-70
2022/03/23 07:23:56;;;;;;;;;;;;;;;10.64;41.67;97738.13;5075218;28;20415;-70
2022/03/23 07:26:22;;;;;;;;;;;;;;;10.76;41.16;97745.31;5075666;28;20004;-70
2022/03/23 07:28:48;;;;;;;;;;;;;;;10.79;41.30;97746.72;5075431;28;20431;-70
2022/03/23 07:31:15;;;;;;;;;;;;;;;10.85;40.89;97743.38;5075122;28;20043;-70
2022/03/23 07:33:41;;;;;;;;;;;;;;;10.97;41.18;97748.94;5075138;28;20314;-71
2022/03/23 07:36:07;;;;;;;;;;;;;;;11.09;41.09;97749.25;5074927;28;19967;-70
2022/03/23 07:38:33;;;;;;;;;;;;;;;11.21;44.01;97752.16;5074986;28;19954;-70
2022/03/23 07:40:59;;;;;;;;;;;;;;;11.48;40.88;97747.94;5074967;28;19947;-70
2022/03/23 07:43:24;;;;;;;;;;;;;;;11.70;40.54;97751.31;5074902;28;20092;-70
2022/03/23 07:45:50;;;;;;;;;;;;;;;11.72;39.95;97749.31;5074526;28;19993;-70
2022/03/23 07:48:16;;;;;;;;;;;;;;;11.78;40.41;97748.56;5074892;28;19989;-71
2022/03/23 07:50:42;;;;;;;;;;;;;;;11.94;40.03;97748.25;5074596;28;20008;-70
2022/03/23 07:53:08;;;;;;;;;;;;;;;11.99;39.64;97745.06;5074828;28;19972;-70
2022/03/23 07:55:34;;;;;;;;;;;;;;;12.00;39.66;97746.66;5074638;28;19952;-70
2022/03/23 07:58:00;;;;;;;;;;;;;;;12.17;42.21;97755.84;5074488;28;20364;-70
2022/03/23 08:00:26;;;;;;;;;;;;;;;12.39;39.05;97746.03;5074531;28;19949;-70
2022/03/23 08:02:52;;;;;;;;;;;;;;;12.62;39.61;97757.22;5074543;28;20055;-71
2022/03/23 08:05:18;;;;;;;;;;;;;;;12.86;39.61;97751.41;5074910;28;20401;-70
2022/03/23 08:07:45;;;;;;;;;;;;;;;12.99;38.60;97753.25;5074713;28;20000;-70
2022/03/23 08:10:11;;;;;;;;;;;;;;;13.11;39.11;97762.19;5074611;28;19966;-70
2022/03/23 08:12:36;;;;;;;;;;;;;;;13.20;39.33;97766.22;5074275;28;19986;-70
2022/03/23 08:15:03;;;;;;;;;;;;;;;13.20;38.84;97763.59;5074344;28;20035;-71
2022/03/23 08:17:29;;;;;;;;;;;;;;;13.29;38.20;97763.41;5074222;28;20417;-70
2022/03/23 08:22:39;;;;;;;;;;;;;;;13.23;38.67;97757.13;5074227;28;19969;-70
2022/03/23 08:25:05;;;;;;;;;;;;;;;13.25;39.18;97764.81;5074354;28;19954;-72
2022/03/23 08:27:31;;;;;;;;;;;;;;;13.35;38.39;97765.25;5074365;28;19940;-70
2022/03/23 08:29:57;;;;;;;;;;;;;;;13.43;37.94;97764.25;5074109;28;19962;-70
2022/03/23 08:32:23;;;;;;;;;;;;;;;13.53;38.34;97760.19;5074091;28;20418;-70
2022/03/23 08:34:49;;;;;;;;;;;;;;;13.73;38.13;97751.44;5073901;28;20373;-70
2022/03/23 08:37:15;;;;;;;;;;;;;;;13.95;38.37;97762.56;5073880;28;19960;-71
2022/03/23 08:39:41;;;;;;;;;;;;;;;14.01;38.40;97762.53;5073007;28;19947;-70
2022/03/23 08:42:07;;;;;;;;;;;;;;;13.76;37.84;97761.56;5072875;28;19980;-70
2022/03/23 08:44:33;;;;;;;;;;;;;;;13.47;38.07;97768.91;5073835;28;19954;-70
2022/03/23 08:46:59;;;;;;;;;;;;;;;13.24;37.81;97771.09;5073848;28;19956;-70
2022/03/23 08:49:25;;;;;;;;;;;;;;;13.17;38.57;97766.63;5073359;28;19969;-70
2022/03/23 08:51:51;;;;;;;;;;;;;;;13.19;38.77;97769.88;5074056;28;20472;-70
2022/03/23 08:54:16;;;;;;;;;;;;;;;13.31;39.35;97767.50;5073711;28;19953;-70
2022/03/23 08:56:42;;;;;;;;;;;;;;;13.43;38.62;97770.31;5073572;28;19948;-71
2022/03/23 08:59:09;;;;;;;;;;;;;;;13.53;38.46;97759.38;5073754;28;19954;-71
2022/03/23 09:01:35;;;;;;;;;;;;;;;13.73;37.74;97754.91;5073472;28;21143;-71
2022/03/23 09:04:04;;;;;;;;;;;;;;;13.86;38.02;97756.69;5072356;28;20080;-70
2022/03/23 09:06:30;;;;;;;;;;;;;;;14.04;37.40;97750.75;5073757;28;19949;-70
2022/03/23 09:08:55;;;;;;;;;;;;;;;14.33;37.72;97754.72;5073841;28;19956;-70
2022/03/23 09:11:22;;;;;;;;;;;;;;;14.38;37.21;97757.53;5072316;28;20493;-70
2022/03/23 09:13:48;;;;;;;;;;;;;;;14.47;37.42;97760.75;5073414;28;20316;-71
2022/03/23 09:16:15;;;;;;;;;;;;;;;14.54;37.17;97753.59;5073746;28;20320;-70
2022/03/23 09:18:41;;;;;;;;;;;;;;;14.52;36.60;97750.34;5073506;28;19957;-73
2022/03/23 09:21:07;;;;;;;;;;;;;;;14.55;36.80;97749.97;5073696;28;19976;-70
2022/03/23 09:23:36;;;;;;;;;;;;;;;14.60;36.53;97744.06;5073302;28;19941;-70
2022/03/23 09:26:03;;;;;;;;;;;;;;;14.73;35.97;97746.63;5073395;28;19959;-71
2022/03/23 09:28:29;;;;;;;;;;;;;;;14.66;36.24;97743.22;5073421;28;20299;-71
2022/03/23 09:30:55;;;;;;;;;;;;;;;14.63;37.07;97748.91;5073189;28;20321;-71
2022/03/23 09:33:21;;;;;;;;;;;;;;;14.66;36.18;97748.50;5073670;28;19956;-71
2022/03/23 09:35:47;;;;;;;;;;;;;;;14.78;36.78;97746.81;5073147;28;20008;-71
2022/03/23 09:38:13;;;;;;;;;;;;;;;14.87;36.30;97742.06;5062589;28;19958;-70
2022/03/23 09:40:39;;;;;;;;;;;;;;;14.96;36.47;97742.63;5072718;28;19956;-70
2022/03/23 09:43:08;;;;;;;;;;;;;;;14.93;35.86;97748.31;5072960;28;20416;-71
2022/03/23 09:48:09;;;;;;;;;;;;;;;15.01;36.76;97740.97;5073359;28;20403;-71
2022/03/23 09:50:36;;;;;;;;;;;;;;;14.96;35.90;97743.44;5073299;28;19960;-70
2022/03/23 09:53:02;;;;;;;;;;;;;;;14.81;36.54;97740.28;5072971;28;19962;-71
2022/03/23 09:55:28;;;;;;;;;;;;;;;14.72;36.03;97739.72;5073197;28;19952;-71
2022/03/23 09:57:55;;;;;;;;;;;;;;;14.70;36.44;97738.31;5072980;28;20288;-71
2022/03/23 10:00:21;;;;;;;;;;;;;;;14.86;35.96;97740.44;5072449;28;19953;-71
2022/03/23 10:03:07;;;;;;;;;;;;;;;14.92;35.68;97736.16;5074891;28;19982;-71
2022/03/23 10:05:51;;;;;;;;;;;;;;;15.04;36.21;97726.50;5062176;28;19944;-71
2022/03/23 10:08:47;;;;;;;;;;;;;;;15.02;35.22;97724.06;5077069;28;20415;-71
2022/03/23 10:11:24;;;;;;;;;;;;;;;15.01;35.82;97727.75;5076363;28;19962;-71
2022/03/23 10:14:09;;;;;;;;;;;;;;;15.03;35.89;97732.81;5076319;28;19946;-71
2022/03/23 10:16:53;;;;;;;;;;;;;;;15.19;34.81;97727.00;5076360;28;19944;-71
2022/03/23 10:19:19;;;;;;;;;;;;;;;15.41;35.20;97730.09;5076572;28;19951;-71
2022/03/23 10:21:45;;;;;;;;;;;;;;;15.66;34.38;97723.94;5076407;28;19952;-71
2022/03/23 10:24:11;;;;;;;;;;;;;;;15.76;34.93;97721.63;5076341;28;20037;-71
2022/03/23 10:26:38;;;;;;;;;;;;;;;15.88;33.75;97719.06;5075810;28;19950;-71
2022/03/23 10:29:04;;;;;;;;;;;;;;;16.11;34.26;97715.75;5076071;28;20304;-71
2022/03/23 10:31:31;;;;;;;;;;;;;;;16.34;33.89;97711.63;5076109;28;20003;-72
2022/03/23 10:34:10;;;;;;;;;;;;;;;16.36;32.69;97699.75;5076532;28;19978;-71
2022/03/23 10:36:39;;;;;;;;;;;;;;;16.48;31.43;97702.44;5076336;28;19939;-71
2022/03/23 10:39:06;;;;;;;;;;;;;;;16.60;32.51;97705.94;5076268;28;20353;-71
2022/03/23 10:41:32;;;;;;;;;;;;;;;16.58;30.75;97697.41;5076306;28;19944;-71
2022/03/23 10:43:59;;;;;;;;;;;;;;;16.69;31.39;97703.78;5075935;28;20412;-71
2022/03/23 10:46:25;;;;;;;;;;;;;;;16.76;28.53;97690.47;5075968;28;19946;-71
2022/03/23 10:48:58;;;;;;;;;;;;;;;16.87;29.89;97697.66;5076172;28;19947;-71
2022/03/23 10:51:42;;;;;;;;;;;;;;;17.13;31.47;97691.09;5075899;28;19959;-71
2022/03/23 10:54:16;;;;;;;;;;;;;;;17.35;27.41;97682.59;5075875;28;19945;-71
2022/03/23 10:56:42;;;;;;;;;;;;;;;17.48;26.75;97679.72;5075984;28;19945;-71
2022/03/23 11:02:45;;;;;;;;;;;;;;;17.75;28.41;97680.03;5076373;28;19978;-71
2022/03/23 11:05:11;;;;;;;;;;;;;;;17.91;26.68;97675.88;5076065;28;20417;-71
2022/03/23 11:07:38;;;;;;;;;;;;;;;18.14;28.86;97671.53;5075626;28;19954;-71
2022/03/23 11:15:49;;;;;;;;;;;;;;;18.46;25.95;97663.91;5067049;28;19953;-71
2022/03/23 11:18:17;;;;;;;;;;;;;;;18.62;23.41;97665.78;5065028;28;19951;-70
2022/03/23 11:20:47;;;;;;;;;;;;;;;18.58;21.65;97656.69;5075489;28;19954;-71
2022/03/23 11:23:18;;;;;;;;;;;;;;;18.59;21.62;97639.69;5075439;28;19959;-71
2022/03/23 11:25:45;;;;;;;;;;;;;;;18.55;23.50;97659.00;5075379;28;20450;-71
2022/03/23 11:28:12;;;;;;;;;;;;;;;18.66;24.82;97653.63;5075593;28;19949;-71
2022/03/23 11:30:38;;;;;;;;;;;;;;;18.86;24.91;97647.06;5075108;28;19965;-71
2022/03/23 11:33:06;;;;;;;;;;;;;;;18.96;21.96;97644.59;5075491;28;20034;-71
2022/03/23 11:35:33;;;;;;;;;;;;;;;19.09;23.06;97642.63;5075048;28;19949;-71
2022/03/23 11:37:59;;;;;;;;;;;;;;;19.32;23.20;97642.47;5075155;28;19974;-71
2022/03/23 11:40:25;;;;;;;;;;;;;;;19.48;22.20;97641.59;5074941;28;19956;-71
2022/03/23 11:42:52;;;;;;;;;;;;;;;19.57;22.22;97636.69;5074888;28;20403;-71
2022/03/23 11:45:18;;;;;;;;;;;;;;;19.71;21.95;97633.66;5075155;28;19951;-71
2022/03/23 11:47:50;;;;;;;;;;;;;;;19.87;23.96;97638.13;5074996;28;19959;-71
2022/03/23 11:50:22;;;;;;;;;;;;;;;19.86;22.73;97629.34;5075010;28;19973;-71
2022/03/23 11:53:10;;;;;;;;;;;;;;;19.87;21.30;97630.16;5074819;28;20464;-71
2022/03/23 11:55:45;;;;;;;;;;;;;;;19.72;21.03;97625.44;5075005;28;19950;-71
2022/03/23 11:58:21;;;;;;;;;;;;;;;19.53;17.76;97624.91;5073454;28;19948;-71
2022/03/23 12:00:52;;;;;;;;;;;;;;;19.60;22.49;97630.06;5074381;28;19978;-71
2022/03/23 12:03:36;;;;;;;;;;;;;;;19.68;20.59;97624.31;5074604;28;19975;-71
2022/03/23 12:06:09;;;;;;;;;;;;;;;19.82;21.08;97620.25;5074558;28;19950;-70
2022/03/23 12:08:57;;;;;;;;;;;;;;;20.04;20.54;97611.44;5074640;28;19951;-71
2022/03/23 12:11:49;;;;;;;;;;;;;;;20.23;19.42;97599.38;5062558;28;19974;-71
2022/03/23 12:14:18;;;;;;;;;;;;;;;20.25;23.11;97607.91;5074544;28;19950;-71
2022/03/23 12:16:51;;;;;;;;;;;;;;;20.28;20.79;97596.78;5074194;28;19957;-71
2022/03/23 12:19:26;;;;;;;;;;;;;;;20.24;19.67;97598.31;5074172;28;19964;-71
2022/03/23 12:21:55;;;;;;;;;;;;;;;20.20;20.14;97589.22;5074477;28;19959;-71
2022/03/23 12:24:40;;;;;;;;;;;;;;;20.14;19.23;97590.22;5073762;28;19948;-71
2022/03/23 12:27:09;;;;;;;;;;;;;;;20.17;20.59;97588.91;5074181;28;19957;-71
2022/03/23 12:29:38;;;;;;;;;;;;;;;20.16;20.75;97574.81;5073936;28;20324;-71
2022/03/23 12:32:06;;;;;;;;;;;;;;;20.26;19.80;97568.75;5074041;28;20451;-71
2022/03/23 12:34:32;;;;;;;;;;;;;;;20.43;20.66;97579.28;5073904;28;19942;-71
2022/03/23 12:37:07;;;;;;;;;;;;;;;20.44;19.71;97572.91;5074289;28;19966;-71
2022/03/23 12:39:34;;;;;;;;;;;;;;;20.61;20.08;97570.16;5074042;28;19958;-71
2022/03/23 12:42:17;;;;;;;;;;;;;;;20.54;17.72;97565.00;5074129;28;19950;-71
2022/03/23 12:44:45;;;;;;;;;;;;;;;20.52;19.26;97561.00;5073830;28;19945;-71
2022/03/23 12:47:12;;;;;;;;;;;;;;;20.46;20.15;97558.28;5073805;28;19949;-71
2022/03/23 12:58:02;;;;;;;;;;;;;;;20.00;18.91;97560.53;5073832;28;20326;-72
2022/03/23 13:00:38;;;;;;;;;;;;;;;19.90;19.52;97559.63;5073669;28;20305;-71
2022/03/23 13:03:07;;;;;;;;;;;;;;;19.99;18.91;97556.25;5073732;28;19981;-71
2022/03/23 13:05:59;;;;;;;;;;;;;;;19.99;18.02;97555.44;5073674;28;19953;-71
2022/03/23 13:08:30;;;;;;;;;;;;;;;20.07;19.57;97552.31;5060439;28;19952;-70
2022/03/23 13:11:06;;;;;;;;;;;;;;;20.08;19.32;97552.09;5073763;28;19961;-71
2022/03/23 13:13:36;;;;;;;;;;;;;;;20.08;18.36;97549.41;5073704;28;20303;-71
2022/03/23 13:16:08;;;;;;;;;;;;;;;20.16;19.37;97552.66;5073642;28;19946;-71
2022/03/23 13:18:36;;;;;;;;;;;;;;;20.27;19.56;97541.88;5072253;28;19945;-71
2022/03/23 13:21:03;;;;;;;;;;;;;;;20.19;18.22;97538.88;5073567;28;19965;-71
2022/03/23 13:23:29;;;;;;;;;;;;;;;20.13;18.85;97538.00;5073677;28;19954;-71
2022/03/23 13:26:01;;;;;;;;;;;;;;;20.08;19.39;97535.31;5073234;28;20048;-71
2022/03/23 13:28:26;;;;;;;;;;;;;;;20.06;19.93;97532.88;5073342;28;19950;-71
2022/03/23 13:30:59;;;;;;;;;;;;;;;20.18;19.08;97529.25;5073553;28;19969;-71
2022/03/23 13:33:28;;;;;;;;;;;;;;;20.15;18.83;97532.44;5073474;28;19953;-71
2022/03/23 13:35:54;;;;;;;;;;;;;;;20.05;18.87;97520.66;5073995;28;19951;-71